Decoded Metar for KHJO (HANFORD in CA, USA) (IATA:HJO) | Meteo·Mobile Aviation Weather
aviador You're here:

KHJO Decoded Metar

HANFORD in CA, USA
Report Time2018-10-20 19:53:00
UTC Time2018-10-20 21:00:00
Flight Rules Old
Wind230° at 03 kt
W.Decomp.*RWY 14: 0.7 kt HW 2.9 kt RCW
W.Rank230° ranks 35
Current wind is below 230° avg. (4.6)
Visibility9999 m
Phenomena:N/A
Clouds:N/A
Expected CloudBase > 8,400 ft AGL from Temp-Dew spread
CeilingNone
Temp27°C (ISA +12)
Dew Point06°C (26% RH)
Heat Index26.3°C
AAT25.0°C
QNH1016 hPa
Density Alt1,713 ft
Elevation243 ft
Report Wrong Elevation
Raw Report
KHJO 201953Z AUTO 23003KT 7SM CLR 27/06 A3000 RMK AO2 SLP160
T02670056=

Extra information for KHJO:More info

Metar Taf Metar & Taf Last 4 Metars F.Rules Stats Wind Profile Meteogram Temp Stats Airport Information Weather charts Add Link Nearby VenuesMetar ALERT Operation Metar Decoded Social comments

AIRNAV info for KHJO